sensor_id;sensor_type;location;lat;lon;timestamp;P1;durP1;ratioP1;P2;durP2;ratioP2
81306;SDS011;70775;50.846;3.224;2023-07-08T00:02:09;8.73;;;5.95;;
81306;SDS011;70775;50.846;3.224;2023-07-08T00:04:36;11.52;;;6.35;;
81306;SDS011;70775;50.846;3.224;2023-07-08T00:07:02;13.75;;;7.03;;
81306;SDS011;70775;50.846;3.224;2023-07-08T00:09:28;11.57;;;6.25;;
81306;SDS011;70775;50.846;3.224;2023-07-08T00:11:55;11.80;;;6.50;;
81306;SDS011;70775;50.846;3.224;2023-07-08T00:14:22;11.95;;;6.90;;
81306;SDS011;70775;50.846;3.224;2023-07-08T00:16:48;11.57;;;6.05;;
81306;SDS011;70775;50.846;3.224;2023-07-08T00:19:14;10.40;;;6.43;;
81306;SDS011;70775;50.846;3.224;2023-07-08T00:21:44;11.13;;;6.53;;
81306;SDS011;70775;50.846;3.224;2023-07-08T00:24:10;11.20;;;6.35;;
81306;SDS011;70775;50.846;3.224;2023-07-08T00:26:36;13.48;;;7.03;;
81306;SDS011;70775;50.846;3.224;2023-07-08T00:29:02;11.25;;;6.65;;
81306;SDS011;70775;50.846;3.224;2023-07-08T00:31:33;12.68;;;6.70;;
81306;SDS011;70775;50.846;3.224;2023-07-08T00:33:59;10.18;;;6.47;;
81306;SDS011;70775;50.846;3.224;2023-07-08T00:36:26;9.70;;;6.25;;
81306;SDS011;70775;50.846;3.224;2023-07-08T00:38:55;9.95;;;6.32;;
81306;SDS011;70775;50.846;3.224;2023-07-08T00:41:32;12.35;;;6.07;;
81306;SDS011;70775;50.846;3.224;2023-07-08T00:44:01;11.43;;;7.30;;
81306;SDS011;70775;50.846;3.224;2023-07-08T00:51:31;11.30;;;7.03;;
81306;SDS011;70775;50.846;3.224;2023-07-08T00:53:57;13.57;;;7.13;;
81306;SDS011;70775;50.846;3.224;2023-07-08T00:56:24;11.43;;;6.75;;
81306;SDS011;70775;50.846;3.224;2023-07-08T00:59:03;11.50;;;7.13;;
81306;SDS011;70775;50.846;3.224;2023-07-08T01:01:32;10.90;;;6.85;;
81306;SDS011;70775;50.846;3.224;2023-07-08T01:04:22;12.23;;;6.47;;
81306;SDS011;70775;50.846;3.224;2023-07-08T01:06:55;11.80;;;7.20;;
81306;SDS011;70775;50.846;3.224;2023-07-08T01:09:27;12.13;;;6.57;;
81306;SDS011;70775;50.846;3.224;2023-07-08T01:11:57;10.63;;;6.40;;
81306;SDS011;70775;50.846;3.224;2023-07-08T01:14:27;12.25;;;6.95;;
81306;SDS011;70775;50.846;3.224;2023-07-08T01:16:56;11.55;;;6.57;;
81306;SDS011;70775;50.846;3.224;2023-07-08T01:19:23;10.07;;;6.97;;
81306;SDS011;70775;50.846;3.224;2023-07-08T01:24:24;10.27;;;6.10;;
81306;SDS011;70775;50.846;3.224;2023-07-08T01:26:50;11.25;;;6.72;;
81306;SDS011;70775;50.846;3.224;2023-07-08T01:29:16;11.88;;;6.28;;
81306;SDS011;70775;50.846;3.224;2023-07-08T01:31:42;13.02;;;7.13;;
81306;SDS011;70775;50.846;3.224;2023-07-08T01:34:13;10.07;;;7.03;;
81306;SDS011;70775;50.846;3.224;2023-07-08T01:36:44;14.60;;;7.05;;
81306;SDS011;70775;50.846;3.224;2023-07-08T01:39:18;14.57;;;6.90;;
81306;SDS011;70775;50.846;3.224;2023-07-08T01:41:46;12.38;;;7.03;;
81306;SDS011;70775;50.846;3.224;2023-07-08T01:46:55;13.63;;;7.50;;
81306;SDS011;70775;50.846;3.224;2023-07-08T01:49:25;11.93;;;7.25;;
81306;SDS011;70775;50.846;3.224;2023-07-08T01:51:51;11.98;;;6.88;;
81306;SDS011;70775;50.846;3.224;2023-07-08T01:54:17;11.68;;;7.32;;
81306;SDS011;70775;50.846;3.224;2023-07-08T01:56:43;13.20;;;7.70;;
81306;SDS011;70775;50.846;3.224;2023-07-08T01:59:08;14.15;;;7.68;;
81306;SDS011;70775;50.846;3.224;2023-07-08T02:01:34;11.80;;;7.85;;
81306;SDS011;70775;50.846;3.224;2023-07-08T02:03:59;11.73;;;7.55;;
81306;SDS011;70775;50.846;3.224;2023-07-08T02:06:25;11.68;;;7.53;;
81306;SDS011;70775;50.846;3.224;2023-07-08T02:08:51;12.23;;;7.68;;
81306;SDS011;70775;50.846;3.224;2023-07-08T02:11:16;10.68;;;7.15;;
81306;SDS011;70775;50.846;3.224;2023-07-08T02:13:42;12.63;;;7.72;;
81306;SDS011;70775;50.846;3.224;2023-07-08T02:16:08;13.68;;;7.25;;
81306;SDS011;70775;50.846;3.224;2023-07-08T02:18:34;10.70;;;7.55;;
81306;SDS011;70775;50.846;3.224;2023-07-08T02:20:59;13.05;;;7.30;;
81306;SDS011;70775;50.846;3.224;2023-07-08T02:23:25;13.55;;;7.25;;
81306;SDS011;70775;50.846;3.224;2023-07-08T02:25:52;12.65;;;7.00;;
81306;SDS011;70775;50.846;3.224;2023-07-08T02:28:18;12.43;;;7.43;;
81306;SDS011;70775;50.846;3.224;2023-07-08T02:30:44;10.65;;;7.07;;
81306;SDS011;70775;50.846;3.224;2023-07-08T02:33:11;11.50;;;7.38;;
81306;SDS011;70775;50.846;3.224;2023-07-08T02:35:38;12.15;;;7.40;;
81306;SDS011;70775;50.846;3.224;2023-07-08T02:38:03;17.73;;;7.45;;
81306;SDS011;70775;50.846;3.224;2023-07-08T02:40:29;15.27;;;7.07;;
81306;SDS011;70775;50.846;3.224;2023-07-08T02:42:55;10.40;;;6.40;;
81306;SDS011;70775;50.846;3.224;2023-07-08T02:45:20;11.77;;;7.30;;
81306;SDS011;70775;50.846;3.224;2023-07-08T02:47:46;12.45;;;7.18;;
81306;SDS011;70775;50.846;3.224;2023-07-08T02:50:12;10.07;;;6.72;;
81306;SDS011;70775;50.846;3.224;2023-07-08T02:52:38;12.20;;;7.47;;
81306;SDS011;70775;50.846;3.224;2023-07-08T02:55:04;11.98;;;6.90;;
81306;SDS011;70775;50.846;3.224;2023-07-08T02:57:30;14.05;;;7.03;;
81306;SDS011;70775;50.846;3.224;2023-07-08T02:59:55;11.63;;;6.68;;
81306;SDS011;70775;50.846;3.224;2023-07-08T03:02:21;13.27;;;7.55;;
81306;SDS011;70775;50.846;3.224;2023-07-08T03:04:47;10.95;;;7.18;;
81306;SDS011;70775;50.846;3.224;2023-07-08T03:07:15;13.10;;;7.43;;
81306;SDS011;70775;50.846;3.224;2023-07-08T03:09:40;12.70;;;7.57;;
81306;SDS011;70775;50.846;3.224;2023-07-08T03:12:07;13.95;;;7.47;;
81306;SDS011;70775;50.846;3.224;2023-07-08T03:14:34;14.75;;;7.32;;
81306;SDS011;70775;50.846;3.224;2023-07-08T03:17:00;12.40;;;7.57;;
81306;SDS011;70775;50.846;3.224;2023-07-08T03:19:26;14.50;;;8.23;;
81306;SDS011;70775;50.846;3.224;2023-07-08T03:21:51;12.15;;;8.00;;
81306;SDS011;70775;50.846;3.224;2023-07-08T03:24:17;15.35;;;8.98;;
81306;SDS011;70775;50.846;3.224;2023-07-08T03:26:43;14.70;;;8.35;;
81306;SDS011;70775;50.846;3.224;2023-07-08T03:29:17;14.88;;;8.77;;
81306;SDS011;70775;50.846;3.224;2023-07-08T03:31:45;13.95;;;8.48;;
81306;SDS011;70775;50.846;3.224;2023-07-08T03:34:15;12.50;;;8.20;;
81306;SDS011;70775;50.846;3.224;2023-07-08T03:36:45;12.02;;;7.75;;
81306;SDS011;70775;50.846;3.224;2023-07-08T03:39:16;14.57;;;8.40;;
81306;SDS011;70775;50.846;3.224;2023-07-08T03:41:47;12.15;;;8.05;;
81306;SDS011;70775;50.846;3.224;2023-07-08T03:44:14;13.77;;;8.10;;
81306;SDS011;70775;50.846;3.224;2023-07-08T03:46:47;11.45;;;7.75;;
81306;SDS011;70775;50.846;3.224;2023-07-08T03:49:17;13.82;;;9.25;;
81306;SDS011;70775;50.846;3.224;2023-07-08T03:51:47;12.80;;;8.50;;
81306;SDS011;70775;50.846;3.224;2023-07-08T03:54:14;12.77;;;8.88;;
81306;SDS011;70775;50.846;3.224;2023-07-08T03:56:40;13.20;;;9.27;;
81306;SDS011;70775;50.846;3.224;2023-07-08T03:59:06;12.02;;;7.90;;
81306;SDS011;70775;50.846;3.224;2023-07-08T04:01:33;12.70;;;8.73;;
81306;SDS011;70775;50.846;3.224;2023-07-08T04:04:06;13.20;;;8.23;;
81306;SDS011;70775;50.846;3.224;2023-07-08T04:06:40;14.27;;;8.32;;
81306;SDS011;70775;50.846;3.224;2023-07-08T04:09:06;16.20;;;7.90;;
81306;SDS011;70775;50.846;3.224;2023-07-08T04:11:32;15.43;;;7.90;;
81306;SDS011;70775;50.846;3.224;2023-07-08T04:13:58;11.00;;;7.43;;
81306;SDS011;70775;50.846;3.224;2023-07-08T04:16:31;11.32;;;7.00;;
81306;SDS011;70775;50.846;3.224;2023-07-08T04:19:07;14.50;;;8.23;;
81306;SDS011;70775;50.846;3.224;2023-07-08T04:21:39;12.50;;;7.90;;
81306;SDS011;70775;50.846;3.224;2023-07-08T04:24:05;14.50;;;7.43;;
81306;SDS011;70775;50.846;3.224;2023-07-08T04:26:31;11.43;;;7.18;;
81306;SDS011;70775;50.846;3.224;2023-07-08T04:29:00;12.98;;;7.88;;
81306;SDS011;70775;50.846;3.224;2023-07-08T04:31:26;11.73;;;7.80;;
81306;SDS011;70775;50.846;3.224;2023-07-08T04:33:52;12.93;;;7.07;;
81306;SDS011;70775;50.846;3.224;2023-07-08T04:36:17;14.65;;;8.25;;
81306;SDS011;70775;50.846;3.224;2023-07-08T04:38:46;10.88;;;7.13;;
81306;SDS011;70775;50.846;3.224;2023-07-08T04:41:12;12.38;;;7.65;;
81306;SDS011;70775;50.846;3.224;2023-07-08T04:43:38;13.00;;;8.15;;
81306;SDS011;70775;50.846;3.224;2023-07-08T04:46:04;12.43;;;8.10;;
81306;SDS011;70775;50.846;3.224;2023-07-08T04:48:51;13.73;;;8.52;;
81306;SDS011;70775;50.846;3.224;2023-07-08T04:51:16;11.90;;;7.22;;
81306;SDS011;70775;50.846;3.224;2023-07-08T04:53:44;14.23;;;7.72;;
81306;SDS011;70775;50.846;3.224;2023-07-08T04:56:09;13.23;;;7.88;;
81306;SDS011;70775;50.846;3.224;2023-07-08T04:58:35;12.48;;;7.53;;
81306;SDS011;70775;50.846;3.224;2023-07-08T05:01:01;11.25;;;7.57;;
81306;SDS011;70775;50.846;3.224;2023-07-08T05:03:26;13.43;;;7.65;;
81306;SDS011;70775;50.846;3.224;2023-07-08T05:05:52;13.25;;;8.05;;
81306;SDS011;70775;50.846;3.224;2023-07-08T05:08:17;13.68;;;7.88;;
81306;SDS011;70775;50.846;3.224;2023-07-08T05:10:43;13.88;;;7.47;;
81306;SDS011;70775;50.846;3.224;2023-07-08T05:13:09;12.38;;;7.63;;
81306;SDS011;70775;50.846;3.224;2023-07-08T05:15:35;11.82;;;7.45;;
81306;SDS011;70775;50.846;3.224;2023-07-08T05:18:01;12.32;;;7.80;;
81306;SDS011;70775;50.846;3.224;2023-07-08T05:20:26;12.10;;;7.57;;
81306;SDS011;70775;50.846;3.224;2023-07-08T05:22:53;14.63;;;7.60;;
81306;SDS011;70775;50.846;3.224;2023-07-08T05:25:18;12.52;;;7.82;;
81306;SDS011;70775;50.846;3.224;2023-07-08T05:27:46;14.20;;;7.72;;
81306;SDS011;70775;50.846;3.224;2023-07-08T05:30:14;13.68;;;7.30;;
81306;SDS011;70775;50.846;3.224;2023-07-08T05:32:41;14.38;;;8.63;;
81306;SDS011;70775;50.846;3.224;2023-07-08T05:35:07;12.05;;;7.72;;
81306;SDS011;70775;50.846;3.224;2023-07-08T05:37:33;12.43;;;7.50;;
81306;SDS011;70775;50.846;3.224;2023-07-08T05:39:59;12.10;;;7.63;;
81306;SDS011;70775;50.846;3.224;2023-07-08T05:42:27;13.77;;;8.20;;
81306;SDS011;70775;50.846;3.224;2023-07-08T05:44:53;11.30;;;6.47;;
81306;SDS011;70775;50.846;3.224;2023-07-08T05:47:19;14.27;;;7.63;;
81306;SDS011;70775;50.846;3.224;2023-07-08T05:49:46;11.80;;;7.30;;
81306;SDS011;70775;50.846;3.224;2023-07-08T05:52:12;11.77;;;7.03;;
81306;SDS011;70775;50.846;3.224;2023-07-08T05:54:38;10.93;;;7.38;;
81306;SDS011;70775;50.846;3.224;2023-07-08T05:57:09;11.00;;;6.50;;
81306;SDS011;70775;50.846;3.224;2023-07-08T05:59:36;11.85;;;6.45;;
81306;SDS011;70775;50.846;3.224;2023-07-08T06:02:04;13.68;;;6.93;;
81306;SDS011;70775;50.846;3.224;2023-07-08T06:04:30;11.55;;;6.10;;
81306;SDS011;70775;50.846;3.224;2023-07-08T06:06:57;12.02;;;6.90;;
81306;SDS011;70775;50.846;3.224;2023-07-08T06:09:23;11.07;;;6.22;;
81306;SDS011;70775;50.846;3.224;2023-07-08T06:11:50;7.82;;;5.32;;
81306;SDS011;70775;50.846;3.224;2023-07-08T06:14:27;11.93;;;6.03;;
81306;SDS011;70775;50.846;3.224;2023-07-08T06:16:54;11.82;;;6.70;;
81306;SDS011;70775;50.846;3.224;2023-07-08T06:19:29;12.52;;;6.07;;
81306;SDS011;70775;50.846;3.224;2023-07-08T06:21:55;9.77;;;5.88;;
81306;SDS011;70775;50.846;3.224;2023-07-08T06:24:21;10.40;;;5.90;;
81306;SDS011;70775;50.846;3.224;2023-07-08T06:26:47;11.15;;;6.60;;
81306;SDS011;70775;50.846;3.224;2023-07-08T06:29:14;10.50;;;5.68;;
81306;SDS011;70775;50.846;3.224;2023-07-08T06:31:41;9.32;;;5.70;;
81306;SDS011;70775;50.846;3.224;2023-07-08T06:34:07;10.05;;;5.35;;
81306;SDS011;70775;50.846;3.224;2023-07-08T06:36:33;9.15;;;5.70;;
81306;SDS011;70775;50.846;3.224;2023-07-08T06:38:59;8.50;;;5.40;;
81306;SDS011;70775;50.846;3.224;2023-07-08T06:41:36;10.73;;;6.20;;
81306;SDS011;70775;50.846;3.224;2023-07-08T06:44:02;8.93;;;5.07;;
81306;SDS011;70775;50.846;3.224;2023-07-08T06:46:31;10.68;;;5.57;;
81306;SDS011;70775;50.846;3.224;2023-07-08T06:49:03;9.38;;;5.57;;
81306;SDS011;70775;50.846;3.224;2023-07-08T06:51:33;9.82;;;5.43;;
81306;SDS011;70775;50.846;3.224;2023-07-08T06:54:04;9.98;;;5.30;;
81306;SDS011;70775;50.846;3.224;2023-07-08T06:56:40;8.90;;;5.10;;
81306;SDS011;70775;50.846;3.224;2023-07-08T06:59:09;11.13;;;5.90;;
81306;SDS011;70775;50.846;3.224;2023-07-08T07:01:38;8.25;;;5.05;;
81306;SDS011;70775;50.846;3.224;2023-07-08T07:04:04;12.82;;;5.43;;
81306;SDS011;70775;50.846;3.224;2023-07-08T07:06:29;10.77;;;5.43;;
81306;SDS011;70775;50.846;3.224;2023-07-08T07:08:55;8.95;;;5.47;;
81306;SDS011;70775;50.846;3.224;2023-07-08T07:11:21;8.52;;;5.13;;
81306;SDS011;70775;50.846;3.224;2023-07-08T07:13:46;12.13;;;4.97;;
81306;SDS011;70775;50.846;3.224;2023-07-08T07:16:12;9.52;;;5.47;;
81306;SDS011;70775;50.846;3.224;2023-07-08T07:18:38;8.60;;;4.95;;
81306;SDS011;70775;50.846;3.224;2023-07-08T07:21:03;8.82;;;4.43;;
81306;SDS011;70775;50.846;3.224;2023-07-08T07:23:30;9.32;;;5.40;;
81306;SDS011;70775;50.846;3.224;2023-07-08T07:25:57;9.30;;;5.28;;
81306;SDS011;70775;50.846;3.224;2023-07-08T07:28:22;9.63;;;5.30;;
81306;SDS011;70775;50.846;3.224;2023-07-08T07:30:54;7.50;;;4.40;;
81306;SDS011;70775;50.846;3.224;2023-07-08T07:33:22;8.48;;;4.85;;
81306;SDS011;70775;50.846;3.224;2023-07-08T07:35:49;10.25;;;5.07;;
81306;SDS011;70775;50.846;3.224;2023-07-08T07:38:14;9.32;;;5.07;;
81306;SDS011;70775;50.846;3.224;2023-07-08T07:40:43;10.13;;;5.00;;
81306;SDS011;70775;50.846;3.224;2023-07-08T07:43:09;8.20;;;5.30;;
81306;SDS011;70775;50.846;3.224;2023-07-08T07:45:35;9.82;;;5.03;;
81306;SDS011;70775;50.846;3.224;2023-07-08T07:48:01;8.05;;;4.75;;
81306;SDS011;70775;50.846;3.224;2023-07-08T07:50:27;9.50;;;5.07;;
81306;SDS011;70775;50.846;3.224;2023-07-08T07:52:53;13.10;;;4.72;;
81306;SDS011;70775;50.846;3.224;2023-07-08T07:55:18;9.00;;;4.82;;
81306;SDS011;70775;50.846;3.224;2023-07-08T07:57:47;10.00;;;5.35;;
81306;SDS011;70775;50.846;3.224;2023-07-08T08:00:13;12.02;;;5.07;;
81306;SDS011;70775;50.846;3.224;2023-07-08T08:02:39;8.95;;;4.63;;
81306;SDS011;70775;50.846;3.224;2023-07-08T08:05:08;8.40;;;4.97;;
81306;SDS011;70775;50.846;3.224;2023-07-08T08:07:34;8.93;;;4.75;;
81306;SDS011;70775;50.846;3.224;2023-07-08T08:10:01;9.25;;;4.82;;
81306;SDS011;70775;50.846;3.224;2023-07-08T08:12:27;9.85;;;4.68;;
81306;SDS011;70775;50.846;3.224;2023-07-08T08:14:52;10.30;;;5.00;;
81306;SDS011;70775;50.846;3.224;2023-07-08T08:17:18;9.10;;;5.20;;
81306;SDS011;70775;50.846;3.224;2023-07-08T08:19:44;8.95;;;5.13;;
81306;SDS011;70775;50.846;3.224;2023-07-08T08:22:10;12.07;;;5.45;;
81306;SDS011;70775;50.846;3.224;2023-07-08T08:24:36;13.02;;;5.35;;
81306;SDS011;70775;50.846;3.224;2023-07-08T08:27:01;10.65;;;5.10;;
81306;SDS011;70775;50.846;3.224;2023-07-08T08:29:27;8.23;;;4.88;;
81306;SDS011;70775;50.846;3.224;2023-07-08T08:31:53;9.65;;;5.15;;
81306;SDS011;70775;50.846;3.224;2023-07-08T08:34:19;12.40;;;5.40;;
81306;SDS011;70775;50.846;3.224;2023-07-08T08:36:45;9.82;;;5.50;;
81306;SDS011;70775;50.846;3.224;2023-07-08T08:39:11;8.55;;;4.95;;
81306;SDS011;70775;50.846;3.224;2023-07-08T08:41:37;10.38;;;5.78;;
81306;SDS011;70775;50.846;3.224;2023-07-08T08:44:10;10.43;;;5.20;;
81306;SDS011;70775;50.846;3.224;2023-07-08T08:46:55;9.30;;;5.22;;
81306;SDS011;70775;50.846;3.224;2023-07-08T08:49:32;9.13;;;5.07;;
81306;SDS011;70775;50.846;3.224;2023-07-08T08:52:04;7.93;;;5.45;;
81306;SDS011;70775;50.846;3.224;2023-07-08T08:54:31;8.90;;;5.18;;
81306;SDS011;70775;50.846;3.224;2023-07-08T08:59:44;7.43;;;4.88;;
81306;SDS011;70775;50.846;3.224;2023-07-08T09:05:11;12.88;;;5.53;;
81306;SDS011;70775;50.846;3.224;2023-07-08T09:07:41;9.02;;;5.05;;
81306;SDS011;70775;50.846;3.224;2023-07-08T09:12:54;10.27;;;4.72;;
81306;SDS011;70775;50.846;3.224;2023-07-08T09:15:23;7.57;;;4.93;;
81306;SDS011;70775;50.846;3.224;2023-07-08T09:17:51;9.13;;;5.32;;
81306;SDS011;70775;50.846;3.224;2023-07-08T09:20:22;8.05;;;4.82;;
81306;SDS011;70775;50.846;3.224;2023-07-08T09:30:24;8.77;;;5.20;;
81306;SDS011;70775;50.846;3.224;2023-07-08T09:32:50;11.15;;;5.45;;
81306;SDS011;70775;50.846;3.224;2023-07-08T09:35:26;9.80;;;4.95;;
81306;SDS011;70775;50.846;3.224;2023-07-08T09:37:53;9.63;;;5.20;;
81306;SDS011;70775;50.846;3.224;2023-07-08T09:40:21;9.27;;;5.20;;
81306;SDS011;70775;50.846;3.224;2023-07-08T09:42:55;10.55;;;5.47;;
81306;SDS011;70775;50.846;3.224;2023-07-08T09:45:27;8.57;;;4.93;;
81306;SDS011;70775;50.846;3.224;2023-07-08T09:47:55;9.25;;;5.53;;
81306;SDS011;70775;50.846;3.224;2023-07-08T09:50:25;9.35;;;5.70;;
81306;SDS011;70775;50.846;3.224;2023-07-08T09:52:54;9.60;;;5.10;;
81306;SDS011;70775;50.846;3.224;2023-07-08T09:55:25;11.20;;;5.45;;
81306;SDS011;70775;50.846;3.224;2023-07-08T09:57:51;12.20;;;5.90;;
81306;SDS011;70775;50.846;3.224;2023-07-08T10:00:24;9.50;;;5.00;;
81306;SDS011;70775;50.846;3.224;2023-07-08T10:03:00;9.63;;;5.53;;
81306;SDS011;70775;50.846;3.224;2023-07-08T10:05:38;9.15;;;5.25;;
81306;SDS011;70775;50.846;3.224;2023-07-08T10:08:16;8.27;;;5.22;;
81306;SDS011;70775;50.846;3.224;2023-07-08T10:10:45;7.97;;;4.80;;
81306;SDS011;70775;50.846;3.224;2023-07-08T10:13:21;8.40;;;5.07;;
81306;SDS011;70775;50.846;3.224;2023-07-08T10:15:55;8.38;;;4.90;;
81306;SDS011;70775;50.846;3.224;2023-07-08T10:18:28;9.38;;;5.07;;
81306;SDS011;70775;50.846;3.224;2023-07-08T10:24:28;8.05;;;5.15;;
81306;SDS011;70775;50.846;3.224;2023-07-08T10:26:46;7.93;;;5.53;;
81306;SDS011;70775;50.846;3.224;2023-07-08T10:35:16;9.48;;;4.97;;
81306;SDS011;70775;50.846;3.224;2023-07-08T10:46:05;8.30;;;4.63;;
81306;SDS011;70775;50.846;3.224;2023-07-08T11:10:25;8.35;;;4.57;;
81306;SDS011;70775;50.846;3.224;2023-07-08T11:13:13;7.00;;;4.47;;
81306;SDS011;70775;50.846;3.224;2023-07-08T11:18:15;8.23;;;4.53;;
81306;SDS011;70775;50.846;3.224;2023-07-08T11:21:00;8.18;;;4.78;;
81306;SDS011;70775;50.846;3.224;2023-07-08T11:23:54;8.48;;;5.03;;
81306;SDS011;70775;50.846;3.224;2023-07-08T11:26:56;9.40;;;4.78;;
81306;SDS011;70775;50.846;3.224;2023-07-08T11:29:35;10.18;;;4.72;;
81306;SDS011;70775;50.846;3.224;2023-07-08T11:32:13;8.77;;;4.90;;
81306;SDS011;70775;50.846;3.224;2023-07-08T11:34:42;10.30;;;5.10;;
81306;SDS011;70775;50.846;3.224;2023-07-08T11:37:09;11.93;;;5.65;;
81306;SDS011;70775;50.846;3.224;2023-07-08T11:39:44;8.23;;;4.97;;
81306;SDS011;70775;50.846;3.224;2023-07-08T11:42:22;11.02;;;4.80;;
81306;SDS011;70775;50.846;3.224;2023-07-08T11:45:24;7.97;;;4.68;;
81306;SDS011;70775;50.846;3.224;2023-07-08T11:48:04;8.20;;;4.88;;
81306;SDS011;70775;50.846;3.224;2023-07-08T11:50:38;8.60;;;4.85;;
81306;SDS011;70775;50.846;3.224;2023-07-08T11:53:08;10.55;;;5.28;;
81306;SDS011;70775;50.846;3.224;2023-07-08T11:55:42;8.25;;;4.85;;
81306;SDS011;70775;50.846;3.224;2023-07-08T12:00:54;9.77;;;5.63;;
81306;SDS011;70775;50.846;3.224;2023-07-08T12:03:49;8.85;;;5.07;;
81306;SDS011;70775;50.846;3.224;2023-07-08T12:08:57;7.90;;;4.90;;
81306;SDS011;70775;50.846;3.224;2023-07-08T12:11:30;11.07;;;5.75;;
81306;SDS011;70775;50.846;3.224;2023-07-08T12:14:01;9.80;;;5.88;;
81306;SDS011;70775;50.846;3.224;2023-07-08T12:16:30;9.48;;;5.75;;
81306;SDS011;70775;50.846;3.224;2023-07-08T12:19:00;9.15;;;5.40;;
81306;SDS011;70775;50.846;3.224;2023-07-08T12:21:29;7.55;;;5.18;;
81306;SDS011;70775;50.846;3.224;2023-07-08T12:24:03;9.05;;;5.18;;
81306;SDS011;70775;50.846;3.224;2023-07-08T12:26:30;7.75;;;5.00;;
81306;SDS011;70775;50.846;3.224;2023-07-08T12:28:57;9.88;;;5.57;;
81306;SDS011;70775;50.846;3.224;2023-07-08T12:31:22;9.80;;;5.65;;
81306;SDS011;70775;50.846;3.224;2023-07-08T12:33:50;9.90;;;5.53;;
81306;SDS011;70775;50.846;3.224;2023-07-08T12:36:25;12.57;;;6.13;;
81306;SDS011;70775;50.846;3.224;2023-07-08T12:38:53;10.40;;;5.35;;
81306;SDS011;70775;50.846;3.224;2023-07-08T12:43:48;9.70;;;5.68;;
81306;SDS011;70775;50.846;3.224;2023-07-08T12:46:17;10.95;;;6.68;;
81306;SDS011;70775;50.846;3.224;2023-07-08T12:48:44;11.95;;;5.93;;
81306;SDS011;70775;50.846;3.224;2023-07-08T12:51:14;9.25;;;4.97;;
81306;SDS011;70775;50.846;3.224;2023-07-08T12:53:48;9.25;;;5.78;;
81306;SDS011;70775;50.846;3.224;2023-07-08T12:56:15;9.45;;;5.85;;
81306;SDS011;70775;50.846;3.224;2023-07-08T12:58:42;9.77;;;6.03;;
81306;SDS011;70775;50.846;3.224;2023-07-08T13:01:21;8.60;;;5.57;;
81306;SDS011;70775;50.846;3.224;2023-07-08T13:03:51;9.98;;;5.68;;
81306;SDS011;70775;50.846;3.224;2023-07-08T13:06:21;9.85;;;5.95;;
81306;SDS011;70775;50.846;3.224;2023-07-08T13:08:49;9.93;;;5.63;;
81306;SDS011;70775;50.846;3.224;2023-07-08T13:11:16;9.27;;;5.78;;
81306;SDS011;70775;50.846;3.224;2023-07-08T13:13:53;9.20;;;5.35;;
81306;SDS011;70775;50.846;3.224;2023-07-08T13:16:24;11.30;;;6.40;;
81306;SDS011;70775;50.846;3.224;2023-07-08T13:18:54;8.98;;;5.68;;
81306;SDS011;70775;50.846;3.224;2023-07-08T13:21:21;8.73;;;5.35;;
81306;SDS011;70775;50.846;3.224;2023-07-08T13:23:49;9.15;;;5.65;;
81306;SDS011;70775;50.846;3.224;2023-07-08T13:26:16;9.95;;;5.90;;
81306;SDS011;70775;50.846;3.224;2023-07-08T13:28:44;10.00;;;5.68;;
81306;SDS011;70775;50.846;3.224;2023-07-08T13:33:51;8.82;;;5.80;;
81306;SDS011;70775;50.846;3.224;2023-07-08T13:36:22;10.90;;;6.35;;
81306;SDS011;70775;50.846;3.224;2023-07-08T13:38:53;9.05;;;5.90;;
81306;SDS011;70775;50.846;3.224;2023-07-08T13:41:22;8.55;;;5.28;;
81306;SDS011;70775;50.846;3.224;2023-07-08T13:43:50;9.43;;;5.72;;
81306;SDS011;70775;50.846;3.224;2023-07-08T13:49:02;10.32;;;5.25;;
81306;SDS011;70775;50.846;3.224;2023-07-08T13:51:39;11.18;;;6.13;;
81306;SDS011;70775;50.846;3.224;2023-07-08T13:54:26;9.25;;;5.55;;
81306;SDS011;70775;50.846;3.224;2023-07-08T13:56:59;9.93;;;6.07;;
81306;SDS011;70775;50.846;3.224;2023-07-08T13:59:26;8.07;;;5.68;;
81306;SDS011;70775;50.846;3.224;2023-07-08T14:01:53;8.73;;;5.40;;
81306;SDS011;70775;50.846;3.224;2023-07-08T14:04:32;10.90;;;5.75;;
81306;SDS011;70775;50.846;3.224;2023-07-08T14:07:00;10.55;;;5.45;;
81306;SDS011;70775;50.846;3.224;2023-07-08T14:09:26;8.70;;;5.20;;
81306;SDS011;70775;50.846;3.224;2023-07-08T14:11:52;8.90;;;5.10;;
81306;SDS011;70775;50.846;3.224;2023-07-08T14:14:19;9.80;;;5.45;;
81306;SDS011;70775;50.846;3.224;2023-07-08T14:16:45;9.57;;;5.78;;
81306;SDS011;70775;50.846;3.224;2023-07-08T14:19:29;8.60;;;5.03;;
81306;SDS011;70775;50.846;3.224;2023-07-08T14:21:58;8.63;;;5.25;;
81306;SDS011;70775;50.846;3.224;2023-07-08T14:24:26;7.40;;;5.00;;
81306;SDS011;70775;50.846;3.224;2023-07-08T14:26:52;9.90;;;5.45;;
81306;SDS011;70775;50.846;3.224;2023-07-08T14:29:18;7.72;;;4.70;;
81306;SDS011;70775;50.846;3.224;2023-07-08T14:31:44;9.85;;;5.10;;
81306;SDS011;70775;50.846;3.224;2023-07-08T14:34:16;9.52;;;5.22;;
81306;SDS011;70775;50.846;3.224;2023-07-08T14:36:50;8.02;;;5.25;;
81306;SDS011;70775;50.846;3.224;2023-07-08T14:39:16;9.82;;;4.90;;
81306;SDS011;70775;50.846;3.224;2023-07-08T14:41:43;9.20;;;5.30;;
81306;SDS011;70775;50.846;3.224;2023-07-08T14:46:46;10.70;;;4.97;;
81306;SDS011;70775;50.846;3.224;2023-07-08T14:49:16;9.15;;;4.82;;
81306;SDS011;70775;50.846;3.224;2023-07-08T14:51:43;11.00;;;5.25;;
81306;SDS011;70775;50.846;3.224;2023-07-08T14:54:09;7.85;;;4.72;;
81306;SDS011;70775;50.846;3.224;2023-07-08T14:56:35;9.82;;;5.28;;
81306;SDS011;70775;50.846;3.224;2023-07-08T14:59:01;7.72;;;4.90;;
81306;SDS011;70775;50.846;3.224;2023-07-08T15:01:26;10.05;;;4.90;;
81306;SDS011;70775;50.846;3.224;2023-07-08T15:03:55;8.85;;;5.22;;
81306;SDS011;70775;50.846;3.224;2023-07-08T15:06:21;9.13;;;5.15;;
81306;SDS011;70775;50.846;3.224;2023-07-08T15:08:47;11.65;;;5.40;;
81306;SDS011;70775;50.846;3.224;2023-07-08T15:11:13;9.70;;;5.47;;
81306;SDS011;70775;50.846;3.224;2023-07-08T15:13:39;7.75;;;5.30;;
81306;SDS011;70775;50.846;3.224;2023-07-08T15:16:10;9.15;;;5.03;;
81306;SDS011;70775;50.846;3.224;2023-07-08T15:18:39;11.32;;;5.30;;
81306;SDS011;70775;50.846;3.224;2023-07-08T15:21:06;11.38;;;5.18;;
81306;SDS011;70775;50.846;3.224;2023-07-08T15:23:35;8.30;;;4.97;;
81306;SDS011;70775;50.846;3.224;2023-07-08T15:26:01;10.45;;;5.20;;
81306;SDS011;70775;50.846;3.224;2023-07-08T15:28:43;7.88;;;5.10;;
81306;SDS011;70775;50.846;3.224;2023-07-08T15:31:14;10.70;;;5.55;;
81306;SDS011;70775;50.846;3.224;2023-07-08T15:33:42;10.05;;;5.28;;
81306;SDS011;70775;50.846;3.224;2023-07-08T15:36:12;8.25;;;5.00;;
81306;SDS011;70775;50.846;3.224;2023-07-08T15:38:42;10.20;;;4.85;;
81306;SDS011;70775;50.846;3.224;2023-07-08T15:41:26;10.88;;;5.38;;
81306;SDS011;70775;50.846;3.224;2023-07-08T15:43:55;8.25;;;4.85;;
81306;SDS011;70775;50.846;3.224;2023-07-08T15:46:24;11.27;;;5.35;;
81306;SDS011;70775;50.846;3.224;2023-07-08T15:48:55;9.07;;;4.97;;
81306;SDS011;70775;50.846;3.224;2023-07-08T15:51:20;8.50;;;5.00;;
81306;SDS011;70775;50.846;3.224;2023-07-08T15:53:46;8.45;;;5.63;;
81306;SDS011;70775;50.846;3.224;2023-07-08T15:56:12;9.02;;;4.95;;
81306;SDS011;70775;50.846;3.224;2023-07-08T15:58:40;10.23;;;5.30;;
81306;SDS011;70775;50.846;3.224;2023-07-08T16:01:07;10.20;;;5.38;;
81306;SDS011;70775;50.846;3.224;2023-07-08T16:03:41;11.85;;;5.47;;
81306;SDS011;70775;50.846;3.224;2023-07-08T16:06:07;9.75;;;5.38;;
81306;SDS011;70775;50.846;3.224;2023-07-08T16:08:33;11.68;;;5.75;;
81306;SDS011;70775;50.846;3.224;2023-07-08T16:11:03;11.88;;;5.78;;
81306;SDS011;70775;50.846;3.224;2023-07-08T16:13:34;10.48;;;5.57;;
81306;SDS011;70775;50.846;3.224;2023-07-08T16:16:03;9.80;;;5.03;;